sensor_id;sensor_type;location;lat;lon;timestamp;pressure;altitude;pressure_sealevel;temperature;humidity
50977;BME280;36992;48.200;12.418;2023-03-17T00:02:22;96747.66;;;7.76;41.92
50977;BME280;36992;48.200;12.418;2023-03-17T00:04:49;96740.41;;;7.71;42.37
50977;BME280;36992;48.200;12.418;2023-03-17T00:07:17;96738.03;;;7.69;42.10
50977;BME280;36992;48.200;12.418;2023-03-17T00:09:43;96734.78;;;7.67;41.90
50977;BME280;36992;48.200;12.418;2023-03-17T00:12:10;96739.63;;;7.65;41.76
50977;BME280;36992;48.200;12.418;2023-03-17T00:14:38;96741.50;;;7.65;41.93
50977;BME280;36992;48.200;12.418;2023-03-17T00:17:10;96736.94;;;7.65;42.19
50977;BME280;36992;48.200;12.418;2023-03-17T00:19:37;96742.84;;;7.62;42.04
50977;BME280;36992;48.200;12.418;2023-03-17T00:22:08;96741.78;;;7.63;42.56
50977;BME280;36992;48.200;12.418;2023-03-17T00:24:37;96742.59;;;7.59;42.18
50977;BME280;36992;48.200;12.418;2023-03-17T00:27:09;96734.28;;;7.60;42.26
50977;BME280;36992;48.200;12.418;2023-03-17T00:29:36;96735.09;;;7.55;42.61
50977;BME280;36992;48.200;12.418;2023-03-17T00:32:07;96727.31;;;7.54;43.09
50977;BME280;36992;48.200;12.418;2023-03-17T00:34:35;96734.56;;;7.53;42.76
50977;BME280;36992;48.200;12.418;2023-03-17T00:37:02;96732.94;;;7.52;42.53
50977;BME280;36992;48.200;12.418;2023-03-17T00:39:28;96729.47;;;7.52;42.80
50977;BME280;36992;48.200;12.418;2023-03-17T00:41:55;96723.56;;;7.50;42.95
50977;BME280;36992;48.200;12.418;2023-03-17T00:44:22;96720.88;;;7.50;42.18
50977;BME280;36992;48.200;12.418;2023-03-17T00:46:49;96715.00;;;7.48;42.42
50977;BME280;36992;48.200;12.418;2023-03-17T00:49:20;96709.13;;;7.51;42.58
50977;BME280;36992;48.200;12.418;2023-03-17T00:51:48;96712.31;;;7.48;42.92
50977;BME280;36992;48.200;12.418;2023-03-17T00:54:16;96694.91;;;7.45;42.87
50977;BME280;36992;48.200;12.418;2023-03-17T00:56:43;96694.13;;;7.45;42.37
50977;BME280;36992;48.200;12.418;2023-03-17T00:59:18;96691.16;;;7.46;42.65
50977;BME280;36992;48.200;12.418;2023-03-17T01:01:45;96688.22;;;7.42;42.83
50977;BME280;36992;48.200;12.418;2023-03-17T01:04:13;96686.09;;;7.39;42.75
50977;BME280;36992;48.200;12.418;2023-03-17T01:06:41;96686.09;;;7.39;42.62
50977;BME280;36992;48.200;12.418;2023-03-17T01:09:11;96677.50;;;7.37;42.47
50977;BME280;36992;48.200;12.418;2023-03-17T01:11:39;96674.03;;;7.32;43.36
50977;BME280;36992;48.200;12.418;2023-03-17T01:14:07;96673.22;;;7.31;42.60
50977;BME280;36992;48.200;12.418;2023-03-17T01:16:34;96671.88;;;7.28;43.31
50977;BME280;36992;48.200;12.418;2023-03-17T01:19:00;96673.25;;;7.26;42.55
50977;BME280;36992;48.200;12.418;2023-03-17T01:21:27;96670.59;;;7.26;42.74
50977;BME280;36992;48.200;12.418;2023-03-17T01:23:55;96660.13;;;7.24;42.45
50977;BME280;36992;48.200;12.418;2023-03-17T01:26:21;96657.19;;;7.21;42.71
50977;BME280;36992;48.200;12.418;2023-03-17T01:28:48;96654.78;;;7.19;42.85
50977;BME280;36992;48.200;12.418;2023-03-17T01:31:14;96648.09;;;7.17;42.47
50977;BME280;36992;48.200;12.418;2023-03-17T01:33:41;96648.34;;;7.15;42.86
50977;BME280;36992;48.200;12.418;2023-03-17T01:36:08;96641.38;;;7.14;43.05
50977;BME280;36992;48.200;12.418;2023-03-17T01:38:36;96635.78;;;7.10;42.46
50977;BME280;36992;48.200;12.418;2023-03-17T01:41:04;96635.78;;;7.10;42.44
50977;BME280;36992;48.200;12.418;2023-03-17T01:43:30;96629.34;;;7.06;42.57
50977;BME280;36992;48.200;12.418;2023-03-17T01:46:25;96625.56;;;7.12;42.65
50977;BME280;36992;48.200;12.418;2023-03-17T01:48:56;96623.97;;;7.06;43.10
50977;BME280;36992;48.200;12.418;2023-03-17T01:51:29;96623.47;;;7.04;43.02
50977;BME280;36992;48.200;12.418;2023-03-17T01:53:58;96613.31;;;7.01;42.56
50977;BME280;36992;48.200;12.418;2023-03-17T01:56:26;96608.22;;;6.99;43.13
50977;BME280;36992;48.200;12.418;2023-03-17T01:58:56;96601.53;;;6.97;43.06
50977;BME280;36992;48.200;12.418;2023-03-17T02:01:28;96598.84;;;6.97;43.46
50977;BME280;36992;48.200;12.418;2023-03-17T02:03:57;96598.59;;;6.93;43.30
50977;BME280;36992;48.200;12.418;2023-03-17T02:06:24;96601.78;;;6.90;43.30
50977;BME280;36992;48.200;12.418;2023-03-17T02:08:51;96601.00;;;6.90;43.26
50977;BME280;36992;48.200;12.418;2023-03-17T02:11:20;96594.56;;;6.91;42.94
50977;BME280;36992;48.200;12.418;2023-03-17T02:13:49;96592.72;;;6.86;43.35
50977;BME280;36992;48.200;12.418;2023-03-17T02:16:16;96587.88;;;6.83;43.18
50977;BME280;36992;48.200;12.418;2023-03-17T02:18:43;96590.81;;;6.81;43.18
50977;BME280;36992;48.200;12.418;2023-03-17T02:21:30;96583.34;;;6.83;43.09
50977;BME280;36992;48.200;12.418;2023-03-17T02:24:02;96587.63;;;6.79;43.29
50977;BME280;36992;48.200;12.418;2023-03-17T02:26:33;96585.50;;;6.76;43.11
50977;BME280;36992;48.200;12.418;2023-03-17T02:29:00;96592.47;;;6.72;42.95
50977;BME280;36992;48.200;12.418;2023-03-17T02:31:27;96586.56;;;6.70;42.98
50977;BME280;36992;48.200;12.418;2023-03-17T02:33:54;96584.44;;;6.67;43.18
50977;BME280;36992;48.200;12.418;2023-03-17T02:36:21;96587.66;;;6.64;42.96
50977;BME280;36992;48.200;12.418;2023-03-17T02:38:49;96587.09;;;6.61;42.98
50977;BME280;36992;48.200;12.418;2023-03-17T02:41:15;96589.78;;;6.56;43.44
50977;BME280;36992;48.200;12.418;2023-03-17T02:43:42;96593.00;;;6.53;44.04
50977;BME280;36992;48.200;12.418;2023-03-17T02:46:08;96597.84;;;6.51;44.10
50977;BME280;36992;48.200;12.418;2023-03-17T02:48:35;96590.84;;;6.50;43.75
50977;BME280;36992;48.200;12.418;2023-03-17T02:51:05;96591.16;;;6.48;44.06
50977;BME280;36992;48.200;12.418;2023-03-17T02:53:32;96586.88;;;6.47;43.82
50977;BME280;36992;48.200;12.418;2023-03-17T02:56:00;96587.66;;;6.48;43.84
50977;BME280;36992;48.200;12.418;2023-03-17T02:58:26;96584.44;;;6.46;43.65
50977;BME280;36992;48.200;12.418;2023-03-17T03:00:53;96579.09;;;6.46;43.99
50977;BME280;36992;48.200;12.418;2023-03-17T03:03:20;96578.03;;;6.42;43.04
50977;BME280;36992;48.200;12.418;2023-03-17T03:05:47;96578.03;;;6.42;43.74
50977;BME280;36992;48.200;12.418;2023-03-17T03:08:13;96580.97;;;6.40;43.18
50977;BME280;36992;48.200;12.418;2023-03-17T03:10:41;96576.69;;;6.39;43.34
50977;BME280;36992;48.200;12.418;2023-03-17T03:13:10;96583.38;;;6.42;43.76
50977;BME280;36992;48.200;12.418;2023-03-17T03:15:40;96577.50;;;6.40;43.12
50977;BME280;36992;48.200;12.418;2023-03-17T03:18:06;96587.13;;;6.36;43.61
50977;BME280;36992;48.200;12.418;2023-03-17T03:20:33;96582.31;;;6.32;43.67
50977;BME280;36992;48.200;12.418;2023-03-17T03:22:59;96575.34;;;6.31;43.35
50977;BME280;36992;48.200;12.418;2023-03-17T03:25:26;96576.41;;;6.30;43.33
50977;BME280;36992;48.200;12.418;2023-03-17T03:27:52;96577.22;;;6.31;43.83
50977;BME280;36992;48.200;12.418;2023-03-17T03:30:20;96574.03;;;6.29;43.58
50977;BME280;36992;48.200;12.418;2023-03-17T03:32:47;96580.72;;;6.26;43.50
50977;BME280;36992;48.200;12.418;2023-03-17T03:35:14;96584.44;;;6.25;43.95
50977;BME280;36992;48.200;12.418;2023-03-17T03:37:41;96582.84;;;6.24;43.33
50977;BME280;36992;48.200;12.418;2023-03-17T03:40:09;96588.19;;;6.24;43.29
50977;BME280;36992;48.200;12.418;2023-03-17T03:42:35;96580.44;;;6.23;43.76
50977;BME280;36992;48.200;12.418;2023-03-17T03:45:02;96582.56;;;6.20;43.60
50977;BME280;36992;48.200;12.418;2023-03-17T03:47:30;96571.09;;;6.20;43.83
50977;BME280;36992;48.200;12.418;2023-03-17T03:49:57;96566.25;;;6.17;43.96
50977;BME280;36992;48.200;12.418;2023-03-17T03:52:23;96556.63;;;6.16;43.92
50977;BME280;36992;48.200;12.418;2023-03-17T03:54:50;96553.13;;;6.15;44.37
50977;BME280;36992;48.200;12.418;2023-03-17T03:57:16;96556.09;;;6.14;44.14
50977;BME280;36992;48.200;12.418;2023-03-17T03:59:43;96546.72;;;6.11;43.73
50977;BME280;36992;48.200;12.418;2023-03-17T04:02:09;96548.34;;;6.12;43.43
50977;BME280;36992;48.200;12.418;2023-03-17T04:04:37;96556.09;;;6.14;43.52
50977;BME280;36992;48.200;12.418;2023-03-17T04:07:04;96548.59;;;6.11;44.05
50977;BME280;36992;48.200;12.418;2023-03-17T04:09:31;96548.84;;;6.09;43.93
50977;BME280;36992;48.200;12.418;2023-03-17T04:11:59;96553.41;;;6.09;43.91
50977;BME280;36992;48.200;12.418;2023-03-17T04:14:25;96549.16;;;6.07;43.88
50977;BME280;36992;48.200;12.418;2023-03-17T04:16:52;96546.47;;;6.07;44.21
50977;BME280;36992;48.200;12.418;2023-03-17T04:19:19;96552.59;;;6.08;44.10
50977;BME280;36992;48.200;12.418;2023-03-17T04:21:48;96558.50;;;6.10;44.04
50977;BME280;36992;48.200;12.418;2023-03-17T04:24:15;96556.34;;;6.07;44.04
50977;BME280;36992;48.200;12.418;2023-03-17T04:26:41;96553.41;;;6.09;44.06
50977;BME280;36992;48.200;12.418;2023-03-17T04:29:08;96547.50;;;6.06;43.92
50977;BME280;36992;48.200;12.418;2023-03-17T04:31:39;96543.25;;;6.05;43.90
50977;BME280;36992;48.200;12.418;2023-03-17T04:34:07;96548.59;;;6.05;44.01
50977;BME280;36992;48.200;12.418;2023-03-17T04:36:35;96548.59;;;6.05;43.89
50977;BME280;36992;48.200;12.418;2023-03-17T04:39:03;96541.13;;;6.07;44.40
50977;BME280;36992;48.200;12.418;2023-03-17T04:41:30;96532.53;;;6.05;44.35
50977;BME280;36992;48.200;12.418;2023-03-17T04:43:56;96532.00;;;6.03;44.48
50977;BME280;36992;48.200;12.418;2023-03-17T04:46:23;96547.00;;;6.04;44.02
50977;BME280;36992;48.200;12.418;2023-03-17T04:48:49;96547.00;;;6.04;44.61
50977;BME280;36992;48.200;12.418;2023-03-17T04:51:16;96551.56;;;6.04;44.38
50977;BME280;36992;48.200;12.418;2023-03-17T04:53:43;96540.03;;;6.03;44.45
50977;BME280;36992;48.200;12.418;2023-03-17T04:56:11;96544.56;;;6.03;44.14
50977;BME280;36992;48.200;12.418;2023-03-17T04:58:38;96538.94;;;5.99;43.79
50977;BME280;36992;48.200;12.418;2023-03-17T05:01:05;96536.53;;;5.98;44.63
50977;BME280;36992;48.200;12.418;2023-03-17T05:03:32;96538.91;;;5.94;43.93
50977;BME280;36992;48.200;12.418;2023-03-17T05:05:59;96545.34;;;5.93;43.74
50977;BME280;36992;48.200;12.418;2023-03-17T05:08:27;96542.94;;;5.91;43.88
50977;BME280;36992;48.200;12.418;2023-03-17T05:10:53;96540.78;;;5.88;44.10
50977;BME280;36992;48.200;12.418;2023-03-17T05:13:22;96538.13;;;5.88;44.42
50977;BME280;36992;48.200;12.418;2023-03-17T05:15:50;96540.53;;;5.85;44.32
50977;BME280;36992;48.200;12.418;2023-03-17T05:18:17;96548.53;;;5.85;44.19
50977;BME280;36992;48.200;12.418;2023-03-17T05:20:44;96554.97;;;5.84;44.59
50977;BME280;36992;48.200;12.418;2023-03-17T05:23:11;96549.63;;;5.84;44.43
50977;BME280;36992;48.200;12.418;2023-03-17T05:25:37;96557.63;;;5.84;44.11
50977;BME280;36992;48.200;12.418;2023-03-17T05:28:06;96562.44;;;5.81;43.64
50977;BME280;36992;48.200;12.418;2023-03-17T05:30:34;96564.84;;;5.83;43.85
50977;BME280;36992;48.200;12.418;2023-03-17T05:33:02;96567.25;;;5.79;44.07
50977;BME280;36992;48.200;12.418;2023-03-17T05:35:28;96564.81;;;5.78;44.51
50977;BME280;36992;48.200;12.418;2023-03-17T05:37:55;96556.03;;;5.77;44.08
50977;BME280;36992;48.200;12.418;2023-03-17T05:40:21;96553.34;;;5.77;44.42
50977;BME280;36992;48.200;12.418;2023-03-17T05:42:49;96557.88;;;5.77;44.51
50977;BME280;36992;48.200;12.418;2023-03-17T05:45:16;96557.09;;;5.76;44.25
50977;BME280;36992;48.200;12.418;2023-03-17T05:47:44;96560.28;;;5.78;44.81
50977;BME280;36992;48.200;12.418;2023-03-17T05:50:11;96561.38;;;5.77;44.85
50977;BME280;36992;48.200;12.418;2023-03-17T05:52:38;96558.69;;;5.77;44.84
50977;BME280;36992;48.200;12.418;2023-03-17T05:55:05;96552.28;;;5.78;45.06
50977;BME280;36992;48.200;12.418;2023-03-17T05:57:33;96562.97;;;5.78;44.73
50977;BME280;36992;48.200;12.418;2023-03-17T05:59:59;96559.22;;;5.79;44.71
50977;BME280;36992;48.200;12.418;2023-03-17T06:02:26;96560.81;;;5.80;44.92
50977;BME280;36992;48.200;12.418;2023-03-17T06:04:54;96562.44;;;5.81;44.96
50977;BME280;36992;48.200;12.418;2023-03-17T06:07:20;96555.47;;;5.80;44.84
50977;BME280;36992;48.200;12.418;2023-03-17T06:09:47;96553.63;;;5.81;44.50
50977;BME280;36992;48.200;12.418;2023-03-17T06:12:14;96548.28;;;5.81;44.47
50977;BME280;36992;48.200;12.418;2023-03-17T06:14:40;96549.06;;;5.81;44.46
50977;BME280;36992;48.200;12.418;2023-03-17T06:17:07;96543.72;;;5.81;44.31
50977;BME280;36992;48.200;12.418;2023-03-17T06:19:34;96541.31;;;5.80;44.20
50977;BME280;36992;48.200;12.418;2023-03-17T06:22:01;96536.50;;;5.82;44.79
50977;BME280;36992;48.200;12.418;2023-03-17T06:24:28;96540.00;;;5.83;44.29
50977;BME280;36992;48.200;12.418;2023-03-17T06:26:55;96538.38;;;5.81;44.58
50977;BME280;36992;48.200;12.418;2023-03-17T06:29:21;96539.72;;;5.84;44.51
50977;BME280;36992;48.200;12.418;2023-03-17T06:31:48;96542.38;;;5.84;44.62
50977;BME280;36992;48.200;12.418;2023-03-17T06:34:15;96545.63;;;5.86;44.43
50977;BME280;36992;48.200;12.418;2023-03-17T06:36:42;96542.66;;;5.88;44.51
50977;BME280;36992;48.200;12.418;2023-03-17T06:39:11;96549.91;;;5.92;44.60
50977;BME280;36992;48.200;12.418;2023-03-17T06:41:38;96555.25;;;5.92;44.50
50977;BME280;36992;48.200;12.418;2023-03-17T06:44:05;96558.44;;;5.94;44.30
50977;BME280;36992;48.200;12.418;2023-03-17T06:46:32;96545.59;;;5.97;44.19
50977;BME280;36992;48.200;12.418;2023-03-17T06:48:59;96556.56;;;6.00;44.07
50977;BME280;36992;48.200;12.418;2023-03-17T06:51:25;96553.63;;;6.02;44.24
50977;BME280;36992;48.200;12.418;2023-03-17T06:53:52;96550.72;;;6.03;44.40
50977;BME280;36992;48.200;12.418;2023-03-17T06:56:20;96535.78;;;6.07;44.10
50977;BME280;36992;48.200;12.418;2023-03-17T06:58:46;96544.56;;;6.08;44.41
50977;BME280;36992;48.200;12.418;2023-03-17T07:01:13;96533.63;;;6.10;44.13
50977;BME280;36992;48.200;12.418;2023-03-17T07:03:40;96536.81;;;6.12;44.58
50977;BME280;36992;48.200;12.418;2023-03-17T07:06:07;96533.06;;;6.13;44.05
50977;BME280;36992;48.200;12.418;2023-03-17T07:08:34;96542.44;;;6.15;44.37
50977;BME280;36992;48.200;12.418;2023-03-17T07:11:01;96537.91;;;6.16;44.23
50977;BME280;36992;48.200;12.418;2023-03-17T07:13:29;96530.41;;;6.18;44.21
50977;BME280;36992;48.200;12.418;2023-03-17T07:15:59;96535.75;;;6.18;44.13
50977;BME280;36992;48.200;12.418;2023-03-17T07:18:26;96544.34;;;6.20;44.37
50977;BME280;36992;48.200;12.418;2023-03-17T07:20:56;96544.59;;;6.24;44.61
50977;BME280;36992;48.200;12.418;2023-03-17T07:23:23;96550.47;;;6.26;44.06
50977;BME280;36992;48.200;12.418;2023-03-17T07:25:50;96547.53;;;6.27;44.12
50977;BME280;36992;48.200;12.418;2023-03-17T07:28:16;96545.38;;;6.29;44.40
50977;BME280;36992;48.200;12.418;2023-03-17T07:30:48;96543.78;;;6.33;44.37
50977;BME280;36992;48.200;12.418;2023-03-17T07:33:15;96549.13;;;6.33;44.41
50977;BME280;36992;48.200;12.418;2023-03-17T07:35:45;96534.69;;;6.34;44.45
50977;BME280;36992;48.200;12.418;2023-03-17T07:38:13;96534.13;;;6.38;44.01
50977;BME280;36992;48.200;12.418;2023-03-17T07:40:39;96530.94;;;6.41;44.40
50977;BME280;36992;48.200;12.418;2023-03-17T07:43:06;96527.69;;;6.44;44.29
50977;BME280;36992;48.200;12.418;2023-03-17T07:45:32;96534.41;;;6.46;44.23
50977;BME280;36992;48.200;12.418;2023-03-17T07:48:01;96526.09;;;6.53;44.11
50977;BME280;36992;48.200;12.418;2023-03-17T07:50:29;96532.28;;;6.54;44.48
50977;BME280;36992;48.200;12.418;2023-03-17T07:52:56;96535.19;;;6.57;44.14
50977;BME280;36992;48.200;12.418;2023-03-17T07:55:22;96526.34;;;6.62;43.96
50977;BME280;36992;48.200;12.418;2023-03-17T07:57:49;96527.69;;;6.65;43.77
50977;BME280;36992;48.200;12.418;2023-03-17T08:00:16;96530.34;;;6.70;43.87
50977;BME280;36992;48.200;12.418;2023-03-17T08:02:43;96529.28;;;6.76;43.68
50977;BME280;36992;48.200;12.418;2023-03-17T08:05:12;96524.69;;;6.82;44.18
50977;BME280;36992;48.200;12.418;2023-03-17T08:07:38;96526.28;;;6.83;43.80
50977;BME280;36992;48.200;12.418;2023-03-17T08:10:06;96528.69;;;6.90;43.96
50977;BME280;36992;48.200;12.418;2023-03-17T08:12:33;96528.13;;;6.93;43.97
50977;BME280;36992;48.200;12.418;2023-03-17T08:15:00;96517.41;;;6.98;43.68
50977;BME280;36992;48.200;12.418;2023-03-17T08:17:26;96516.59;;;7.02;43.47
50977;BME280;36992;48.200;12.418;2023-03-17T08:19:53;96514.72;;;7.08;43.91
50977;BME280;36992;48.200;12.418;2023-03-17T08:22:22;96512.25;;;7.17;44.12
50977;BME280;36992;48.200;12.418;2023-03-17T08:24:49;96513.59;;;7.20;44.20
50977;BME280;36992;48.200;12.418;2023-03-17T08:27:16;96522.91;;;7.27;43.72
50977;BME280;36992;48.200;12.418;2023-03-17T08:29:43;96521.03;;;7.33;43.97
50977;BME280;36992;48.200;12.418;2023-03-17T08:32:10;96518.03;;;7.40;43.81
50977;BME280;36992;48.200;12.418;2023-03-17T08:34:37;96517.22;;;7.45;43.39
50977;BME280;36992;48.200;12.418;2023-03-17T08:37:04;96523.06;;;7.52;42.91
50977;BME280;36992;48.200;12.418;2023-03-17T08:39:32;96512.03;;;7.59;43.54
50977;BME280;36992;48.200;12.418;2023-03-17T08:41:59;96508.53;;;7.63;43.53
50977;BME280;36992;48.200;12.418;2023-03-17T08:44:26;96510.38;;;7.68;43.90
50977;BME280;36992;48.200;12.418;2023-03-17T08:46:52;96510.06;;;7.75;43.18
50977;BME280;36992;48.200;12.418;2023-03-17T08:49:19;96505.75;;;7.79;43.32
50977;BME280;36992;48.200;12.418;2023-03-17T08:51:45;96503.53;;;7.86;43.20
50977;BME280;36992;48.200;12.418;2023-03-17T08:54:13;96498.97;;;7.92;43.40
50977;BME280;36992;48.200;12.418;2023-03-17T08:56:41;96499.44;;;7.99;43.22
50977;BME280;36992;48.200;12.418;2023-03-17T08:59:08;96494.31;;;8.03;43.25
50977;BME280;36992;48.200;12.418;2023-03-17T09:01:35;96497.75;;;8.08;43.01
50977;BME280;36992;48.200;12.418;2023-03-17T09:04:02;96495.84;;;8.14;43.05
50977;BME280;36992;48.200;12.418;2023-03-17T09:06:29;96493.91;;;8.20;43.36
50977;BME280;36992;48.200;12.418;2023-03-17T09:08:56;96490.91;;;8.27;43.27
50977;BME280;36992;48.200;12.418;2023-03-17T09:11:25;96495.13;;;8.33;43.21
50977;BME280;36992;48.200;12.418;2023-03-17T09:13:54;96483.78;;;8.41;43.08
50977;BME280;36992;48.200;12.418;2023-03-17T09:16:21;96480.22;;;8.46;43.03
50977;BME280;36992;48.200;12.418;2023-03-17T09:18:51;96482.63;;;8.53;42.78
50977;BME280;36992;48.200;12.418;2023-03-17T09:21:18;96481.75;;;8.57;42.93
50977;BME280;36992;48.200;12.418;2023-03-17T09:23:45;96472.28;;;8.65;42.78
50977;BME280;36992;48.200;12.418;2023-03-17T09:26:12;96469.56;;;8.70;43.22
50977;BME280;36992;48.200;12.418;2023-03-17T09:28:39;96470.00;;;8.77;43.23
50977;BME280;36992;48.200;12.418;2023-03-17T09:31:07;96464.00;;;8.86;43.17
50977;BME280;36992;48.200;12.418;2023-03-17T09:33:35;96466.63;;;8.91;43.08
50977;BME280;36992;48.200;12.418;2023-03-17T09:36:02;96475.13;;;8.98;43.17
50977;BME280;36992;48.200;12.418;2023-03-17T09:38:29;96468.59;;;9.04;43.39
50977;BME280;36992;48.200;12.418;2023-03-17T09:40:59;96473.84;;;9.15;43.19
50977;BME280;36992;48.200;12.418;2023-03-17T09:43:36;96477.50;;;9.24;43.02
50977;BME280;36992;48.200;12.418;2023-03-17T09:46:28;96483.25;;;9.37;43.29
50977;BME280;36992;48.200;12.418;2023-03-17T09:49:01;96479.19;;;9.39;42.52
50977;BME280;36992;48.200;12.418;2023-03-17T09:51:33;96477.22;;;9.45;43.20
50977;BME280;36992;48.200;12.418;2023-03-17T09:54:02;96483.03;;;9.52;42.89
50977;BME280;36992;48.200;12.418;2023-03-17T09:56:31;96478.09;;;9.60;42.98
50977;BME280;36992;48.200;12.418;2023-03-17T09:59:03;96478.53;;;9.67;43.22
50977;BME280;36992;48.200;12.418;2023-03-17T10:01:32;96471.97;;;9.73;42.36
50977;BME280;36992;48.200;12.418;2023-03-17T10:03:58;96468.13;;;9.79;42.66
50977;BME280;36992;48.200;12.418;2023-03-17T10:06:33;96460.88;;;9.94;42.82
50977;BME280;36992;48.200;12.418;2023-03-17T10:09:11;96465.09;;;10.00;42.73
50977;BME280;36992;48.200;12.418;2023-03-17T10:11:42;96460.16;;;10.07;42.67
50977;BME280;36992;48.200;12.418;2023-03-17T10:14:20;96464.78;;;10.21;43.10
50977;BME280;36992;48.200;12.418;2023-03-17T10:16:55;96463.78;;;10.31;42.83
50977;BME280;36992;48.200;12.418;2023-03-17T10:19:27;96464.19;;;10.38;42.62
50977;BME280;36992;48.200;12.418;2023-03-17T10:21:56;96460.56;;;10.48;42.55
50977;BME280;36992;48.200;12.418;2023-03-17T10:24:27;96456.56;;;10.59;41.82
50977;BME280;36992;48.200;12.418;2023-03-17T10:26:59;96446.19;;;10.66;41.78
50977;BME280;36992;48.200;12.418;2023-03-17T10:29:29;96446.31;;;10.75;41.51
50977;BME280;36992;48.200;12.418;2023-03-17T10:31:58;96441.50;;;10.86;41.75
50977;BME280;36992;48.200;12.418;2023-03-17T10:34:26;96441.13;;;10.93;41.58
50977;BME280;36992;48.200;12.418;2023-03-17T10:36:57;96433.59;;;11.04;41.55
50977;BME280;36992;48.200;12.418;2023-03-17T10:39:25;96433.69;;;11.13;40.47
50977;BME280;36992;48.200;12.418;2023-03-17T10:41:54;96423.97;;;11.26;40.93
50977;BME280;36992;48.200;12.418;2023-03-17T10:44:28;96421.06;;;11.36;40.98
50977;BME280;36992;48.200;12.418;2023-03-17T10:47:01;96409.84;;;11.43;40.80
50977;BME280;36992;48.200;12.418;2023-03-17T10:49:35;96411.69;;;11.56;40.78
50977;BME280;36992;48.200;12.418;2023-03-17T10:52:05;96410.97;;;11.65;40.93
50977;BME280;36992;48.200;12.418;2023-03-17T10:54:33;96407.03;;;11.71;39.62
50977;BME280;36992;48.200;12.418;2023-03-17T10:57:06;96403.28;;;11.81;40.02
50977;BME280;36992;48.200;12.418;2023-03-17T10:59:40;96395.75;;;11.92;39.79
50977;BME280;36992;48.200;12.418;2023-03-17T11:02:18;96398.81;;;11.99;39.92
50977;BME280;36992;48.200;12.418;2023-03-17T11:04:45;96400.59;;;12.04;39.14
50977;BME280;36992;48.200;12.418;2023-03-17T11:07:15;96396.03;;;12.13;39.73
50977;BME280;36992;48.200;12.418;2023-03-17T11:09:42;96395.91;;;12.18;39.36
50977;BME280;36992;48.200;12.418;2023-03-17T11:12:21;96394.84;;;12.28;39.52
50977;BME280;36992;48.200;12.418;2023-03-17T11:14:49;96392.81;;;12.34;39.41
50977;BME280;36992;48.200;12.418;2023-03-17T11:17:32;96397.00;;;12.49;39.79
50977;BME280;36992;48.200;12.418;2023-03-17T11:20:10;96395.44;;;12.57;39.28
50977;BME280;36992;48.200;12.418;2023-03-17T11:22:42;96389.28;;;12.65;38.60
50977;BME280;36992;48.200;12.418;2023-03-17T11:25:14;96390.91;;;12.75;38.64
50977;BME280;36992;48.200;12.418;2023-03-17T11:27:45;96385.97;;;12.86;38.28
50977;BME280;36992;48.200;12.418;2023-03-17T11:30:16;96380.59;;;12.94;38.23
50977;BME280;36992;48.200;12.418;2023-03-17T11:32:54;96369.66;;;13.08;39.21
50977;BME280;36992;48.200;12.418;2023-03-17T11:35:36;96368.03;;;13.16;38.77
50977;BME280;36992;48.200;12.418;2023-03-17T11:38:18;96365.84;;;13.27;39.08
50977;BME280;36992;48.200;12.418;2023-03-17T11:43:44;96363.91;;;13.45;39.23
50977;BME280;36992;48.200;12.418;2023-03-17T11:46:14;96350.25;;;13.51;38.14
50977;BME280;36992;48.200;12.418;2023-03-17T11:48:51;96354.53;;;13.60;38.47
50977;BME280;36992;48.200;12.418;2023-03-17T11:51:25;96351.66;;;13.66;37.92
50977;BME280;36992;48.200;12.418;2023-03-17T11:54:07;96351.31;;;13.76;38.21
50977;BME280;36992;48.200;12.418;2023-03-17T11:56:39;96353.09;;;13.81;37.96
50977;BME280;36992;48.200;12.418;2023-03-17T11:59:14;96343.31;;;13.88;38.24
50977;BME280;36992;48.200;12.418;2023-03-17T12:01:48;96340.94;;;13.96;37.28
50977;BME280;36992;48.200;12.418;2023-03-17T12:04:25;96338.53;;;14.03;37.31
50977;BME280;36992;48.200;12.418;2023-03-17T12:06:58;96323.19;;;14.07;37.35
50977;BME280;36992;48.200;12.418;2023-03-17T12:09:29;96329.25;;;14.13;37.02
50977;BME280;36992;48.200;12.418;2023-03-17T12:11:58;96324.28;;;14.15;36.45
50977;BME280;36992;48.200;12.418;2023-03-17T12:14:28;96325.38;;;14.23;37.28
50977;BME280;36992;48.200;12.418;2023-03-17T12:17:01;96323.75;;;14.30;37.87
50977;BME280;36992;48.200;12.418;2023-03-17T12:19:38;96325.31;;;14.40;37.88
50977;BME280;36992;48.200;12.418;2023-03-17T12:22:11;96320.50;;;14.46;36.33
50977;BME280;36992;48.200;12.418;2023-03-17T12:24:47;96320.44;;;14.55;37.02
50977;BME280;36992;48.200;12.418;2023-03-17T12:27:21;96323.28;;;14.59;36.69
50977;BME280;36992;48.200;12.418;2023-03-17T12:29:53;96317.22;;;14.62;36.52
50977;BME280;36992;48.200;12.418;2023-03-17T12:32:24;96313.06;;;14.64;35.88
50977;BME280;36992;48.200;12.418;2023-03-17T12:34:56;96301.56;;;14.67;36.51
50977;BME280;36992;48.200;12.418;2023-03-17T12:37:25;96308.38;;;14.74;35.69
50977;BME280;36992;48.200;12.418;2023-03-17T12:39:54;96302.94;;;14.74;35.98
50977;BME280;36992;48.200;12.418;2023-03-17T12:42:35;96304.50;;;14.83;36.96
50977;BME280;36992;48.200;12.418;2023-03-17T12:45:33;96303.50;;;14.88;37.60
50977;BME280;36992;48.200;12.418;2023-03-17T12:48:19;96308.41;;;14.95;37.75
50977;BME280;36992;48.200;12.418;2023-03-17T12:51:06;96302.31;;;14.98;36.71
50977;BME280;36992;48.200;12.418;2023-03-17T12:53:37;96301.53;;;14.97;35.66
50977;BME280;36992;48.200;12.418;2023-03-17T12:56:17;96304.50;;;15.05;35.53
50977;BME280;36992;48.200;12.418;2023-03-17T12:58:45;96296.81;;;15.07;35.33
50977;BME280;36992;48.200;12.418;2023-03-17T13:01:22;96295.50;;;15.13;36.25
50977;BME280;36992;48.200;12.418;2023-03-17T13:04:01;96292.59;;;15.18;36.73
50977;BME280;36992;48.200;12.418;2023-03-17T13:06:37;96284.94;;;15.20;35.60
50977;BME280;36992;48.200;12.418;2023-03-17T13:09:27;96282.00;;;15.26;36.01
50977;BME280;36992;48.200;12.418;2023-03-17T13:11:54;96285.38;;;15.22;34.67